createdAt,value
2018-03-30T00:00:45.085Z,99585.81
2018-03-30T00:03:12.642Z,99589.03
2018-03-30T00:05:40.226Z,99585.50
2018-03-30T00:08:07.824Z,99582.61
2018-03-30T00:10:41.166Z,99587.10
2018-03-30T00:13:09.208Z,99587.55
2018-03-30T00:15:36.750Z,99589.06
2018-03-30T00:18:04.349Z,99598.53
2018-03-30T00:20:31.935Z,99593.81
2018-03-30T00:22:59.539Z,99599.31
2018-03-30T00:25:27.553Z,99594.59
2018-03-30T00:27:55.468Z,99589.56
2018-03-30T00:30:23.016Z,99593.55
2018-03-30T00:32:50.606Z,99597.23
2018-03-30T00:35:18.209Z,99602.38
2018-03-30T00:37:45.746Z,99594.70
2018-03-30T00:40:13.703Z,99592.13
2018-03-30T00:42:41.292Z,99591.55
2018-03-30T00:45:08.900Z,99594.15
2018-03-30T00:47:36.919Z,99599.97
2018-03-30T00:50:04.476Z,99606.07
2018-03-30T00:52:32.076Z,99606.61
2018-03-30T00:54:59.647Z,99600.22
2018-03-30T00:57:27.201Z,99607.33
2018-03-30T00:59:55.202Z,99618.64
2018-03-30T01:02:23.098Z,99614.17
2018-03-30T01:04:50.808Z,99614.91
2018-03-30T01:07:18.363Z,99613.23
2018-03-30T01:09:46.901Z,99621.80
2018-03-30T01:12:14.451Z,99615.99
2018-03-30T01:14:42.346Z,99615.88
2018-03-30T01:17:09.943Z,99619.30
2018-03-30T01:19:37.487Z,99617.88
2018-03-30T01:22:05.568Z,99631.95
2018-03-30T01:24:33.123Z,99631.45
2018-03-30T01:27:00.711Z,99637.40
2018-03-30T01:29:28.282Z,99636.36
2018-03-30T01:31:55.884Z,99630.18
2018-03-30T01:34:23.428Z,99633.26
2018-03-30T01:36:50.966Z,99638.67
2018-03-30T01:39:18.556Z,99647.68
2018-03-30T01:41:46.699Z,99650.50
2018-03-30T01:44:14.234Z,99651.02
2018-03-30T01:46:41.832Z,99636.36
2018-03-30T01:49:09.376Z,99632.16
2018-03-30T01:51:37.452Z,99637.73
2018-03-30T01:54:05.044Z,99636.27
2018-03-30T01:56:32.640Z,99631.61
2018-03-30T01:59:00.261Z,99633.28
2018-03-30T02:01:28.707Z,99640.09
2018-03-30T02:03:56.259Z,99645.45
2018-03-30T02:06:23.813Z,99652.41
2018-03-30T02:08:51.405Z,99648.09
2018-03-30T02:11:19.902Z,99639.10
2018-03-30T02:13:47.490Z,99644.42
2018-03-30T02:16:15.040Z,99648.73
2018-03-30T02:18:42.652Z,99643.23
2018-03-30T02:21:10.194Z,99640.75
2018-03-30T02:23:37.747Z,99642.87
2018-03-30T02:26:06.754Z,99650.30
2018-03-30T02:28:34.296Z,99655.02
2018-03-30T02:31:02.311Z,99657.04
2018-03-30T02:33:29.865Z,99656.81
2018-03-30T02:35:57.413Z,99656.94
2018-03-30T02:38:24.992Z,99656.33
2018-03-30T02:40:53.089Z,99657.80
2018-03-30T02:43:20.652Z,99655.20
2018-03-30T02:45:48.742Z,99669.45
2018-03-30T02:48:16.336Z,99677.84
2018-03-30T02:50:43.902Z,99678.83
2018-03-30T02:53:11.497Z,99676.75
2018-03-30T02:55:39.100Z,99669.03
2018-03-30T02:58:06.704Z,99670.66
2018-03-30T03:00:35.160Z,99668.67
2018-03-30T03:03:02.753Z,99671.48
2018-03-30T03:05:30.295Z,99674.89
2018-03-30T03:07:57.876Z,99669.81
2018-03-30T03:10:25.443Z,99671.88
2018-03-30T03:12:53.056Z,99677.05
2018-03-30T03:15:21.279Z,99680.14
2018-03-30T03:17:48.879Z,99687.27
2018-03-30T03:20:16.423Z,99693.02
2018-03-30T03:22:43.963Z,99689.61
2018-03-30T03:25:11.568Z,99694.66
2018-03-30T03:27:39.109Z,99688.61
2018-03-30T03:30:06.705Z,99711.23
2018-03-30T03:32:34.339Z,99702.00
2018-03-30T03:35:01.919Z,99711.44
2018-03-30T03:37:29.467Z,99713.17
2018-03-30T03:39:57.059Z,99713.78
2018-03-30T03:42:24.624Z,99709.17
2018-03-30T03:44:52.735Z,99715.88
2018-03-30T03:47:20.704Z,99728.14
2018-03-30T03:49:48.247Z,99731.62
2018-03-30T03:52:15.847Z,99728.57
2018-03-30T03:54:43.390Z,99726.00
2018-03-30T03:57:11.554Z,99738.25
2018-03-30T03:59:39.456Z,99738.65
2018-03-30T04:02:07.055Z,99739.73
2018-03-30T04:04:35.813Z,99740.89
2018-03-30T04:07:03.401Z,99727.02
2018-03-30T04:09:31.468Z,99737.62
2018-03-30T04:11:59.068Z,99746.58
2018-03-30T04:14:26.664Z,99749.13
2018-03-30T04:16:54.217Z,99746.19
2018-03-30T04:19:22.181Z,99742.63
2018-03-30T04:21:49.785Z,99757.43
2018-03-30T04:24:17.339Z,99751.77
2018-03-30T04:26:44.947Z,99760.41
2018-03-30T04:29:12.504Z,99751.94
2018-03-30T04:31:40.043Z,99750.26
2018-03-30T04:34:07.644Z,99744.98
2018-03-30T04:36:35.186Z,99751.73
2018-03-30T04:39:03.129Z,99758.43
2018-03-30T04:41:30.843Z,99759.09
2018-03-30T04:43:58.456Z,99759.48
2018-03-30T04:46:26.596Z,99761.58
2018-03-30T04:48:54.199Z,99770.22
2018-03-30T04:51:23.031Z,99770.79
2018-03-30T04:53:50.628Z,99774.14
2018-03-30T04:56:18.318Z,99765.49
2018-03-30T04:58:45.945Z,99762.23
2018-03-30T05:01:13.519Z,99757.84
2018-03-30T05:03:41.152Z,99759.41
2018-03-30T05:06:08.751Z,99763.59
2018-03-30T05:08:36.303Z,99761.97
2018-03-30T05:11:03.912Z,99758.95
2018-03-30T05:13:31.461Z,99764.56
2018-03-30T05:15:59.052Z,99754.13
2018-03-30T05:18:26.619Z,99755.57
2018-03-30T05:20:54.258Z,99765.17
2018-03-30T05:23:22.000Z,99770.95
2018-03-30T05:25:49.876Z,99770.16
2018-03-30T05:28:17.581Z,99771.28
2018-03-30T05:30:45.157Z,99769.30
2018-03-30T05:33:12.765Z,99777.02
2018-03-30T05:35:40.568Z,99770.64
2018-03-30T05:38:08.576Z,99779.23
2018-03-30T05:40:36.180Z,99779.36
2018-03-30T05:43:03.745Z,99786.90
2018-03-30T05:45:32.261Z,99782.31
2018-03-30T05:48:00.753Z,99790.59
2018-03-30T05:50:28.581Z,99793.36
2018-03-30T05:52:56.948Z,99790.30
2018-03-30T05:55:25.386Z,99785.49
2018-03-30T05:57:53.915Z,99788.56
2018-03-30T06:00:22.081Z,99785.92
2018-03-30T06:02:49.702Z,99778.86
2018-03-30T06:05:17.304Z,99779.25
2018-03-30T06:07:45.425Z,99775.09
2018-03-30T06:10:13.579Z,99775.17
2018-03-30T06:12:41.862Z,99781.40
2018-03-30T06:15:09.476Z,99774.41
2018-03-30T06:17:37.671Z,99771.70
2018-03-30T06:20:05.287Z,99779.08
2018-03-30T06:22:32.856Z,99772.61
2018-03-30T06:25:01.635Z,99780.34
2018-03-30T06:27:29.442Z,99790.13
2018-03-30T06:29:57.818Z,99785.29
2018-03-30T06:32:26.608Z,99787.71
2018-03-30T06:34:55.044Z,99782.22
2018-03-30T06:37:22.624Z,99781.97
2018-03-30T06:39:50.214Z,99789.22
2018-03-30T06:42:17.813Z,99794.53
2018-03-30T06:44:45.820Z,99793.81
2018-03-30T06:47:13.664Z,99795.52
2018-03-30T06:49:41.245Z,99798.06
2018-03-30T06:52:08.889Z,99797.25
2018-03-30T06:54:36.463Z,99793.90
2018-03-30T06:57:04.041Z,99790.05
2018-03-30T06:59:32.041Z,99783.66
2018-03-30T07:01:59.722Z,99784.58
2018-03-30T07:04:27.420Z,99780.40
2018-03-30T07:06:55.015Z,99779.39
2018-03-30T07:09:22.643Z,99787.36
2018-03-30T07:11:50.252Z,99792.10
2018-03-30T07:14:18.185Z,99788.84
2018-03-30T07:16:45.729Z,99795.23
2018-03-30T07:19:13.333Z,99792.00
2018-03-30T07:21:41.019Z,99799.81
2018-03-30T07:24:08.576Z,99800.02
2018-03-30T07:26:36.385Z,99798.01
2018-03-30T07:29:04.334Z,99802.09
2018-03-30T07:31:32.222Z,99795.77
2018-03-30T07:33:59.786Z,99799.85
2018-03-30T07:36:27.348Z,99800.52
2018-03-30T07:38:54.955Z,99801.05
2018-03-30T07:41:22.972Z,99795.23
2018-03-30T07:43:50.576Z,99792.85
2018-03-30T07:46:18.879Z,99801.95
2018-03-30T07:48:46.489Z,99805.05
2018-03-30T07:51:14.083Z,99807.15
2018-03-30T07:53:41.776Z,99804.30
2018-03-30T07:56:09.975Z,99803.32
2018-03-30T07:58:37.633Z,99807.05
2018-03-30T08:01:05.559Z,99807.98
2018-03-30T08:03:33.270Z,99801.81
2018-03-30T08:06:01.776Z,99795.23
2018-03-30T08:08:29.389Z,99794.75
2018-03-30T08:10:56.948Z,99794.30
2018-03-30T08:13:24.514Z,99796.83
2018-03-30T08:15:52.142Z,99800.29
2018-03-30T08:18:19.688Z,99798.13
2018-03-30T08:20:48.134Z,99793.27
2018-03-30T08:23:15.737Z,99791.05
2018-03-30T08:25:43.312Z,99782.19
2018-03-30T08:28:10.883Z,99785.20
2018-03-30T08:30:38.540Z,99784.98
2018-03-30T08:33:06.244Z,99784.36
2018-03-30T08:35:33.796Z,99781.86
2018-03-30T08:38:01.391Z,99778.70
2018-03-30T08:40:29.325Z,99788.33
2018-03-30T08:42:57.686Z,99786.09
2018-03-30T08:45:25.437Z,99783.09
2018-03-30T08:47:53.177Z,99776.65
2018-03-30T08:50:20.740Z,99775.44
2018-03-30T08:52:48.312Z,99769.31
2018-03-30T08:55:15.923Z,99773.37
2018-03-30T08:57:43.484Z,99770.92
2018-03-30T09:00:11.189Z,99767.43
2018-03-30T09:02:38.816Z,99763.25
2018-03-30T09:05:06.672Z,99752.69
2018-03-30T09:07:34.277Z,99755.70
2018-03-30T09:10:02.226Z,99751.25
2018-03-30T09:12:29.982Z,99754.36
2018-03-30T09:14:57.540Z,99746.02
2018-03-30T09:17:25.143Z,99740.33
2018-03-30T09:19:52.902Z,99739.00
2018-03-30T09:22:20.450Z,99734.14
2018-03-30T09:24:48.896Z,99737.69
2018-03-30T09:27:16.737Z,99730.77
2018-03-30T09:29:49.885Z,99738.75
2018-03-30T09:32:17.463Z,99729.38
2018-03-30T09:34:45.066Z,99724.16
2018-03-30T09:37:13.090Z,99713.84
2018-03-30T09:39:40.994Z,99718.61
2018-03-30T09:42:08.557Z,99712.64
2018-03-30T09:44:36.120Z,99709.39
2018-03-30T09:47:03.717Z,99709.02
2018-03-30T09:49:31.324Z,99706.81
2018-03-30T09:51:58.868Z,99707.44
2018-03-30T09:54:26.456Z,99696.66
2018-03-30T09:56:54.282Z,99692.20
2018-03-30T09:59:21.887Z,99682.32
2018-03-30T10:01:52.273Z,99685.00
2018-03-30T10:04:24.020Z,99680.89
2018-03-30T10:06:52.103Z,99676.98
2018-03-30T10:09:19.698Z,99667.00
2018-03-30T10:11:47.275Z,99675.80
2018-03-30T10:14:14.890Z,99663.81
2018-03-30T10:16:42.449Z,99666.75
2018-03-30T10:19:10.469Z,99671.00
2018-03-30T10:21:38.134Z,99665.48
2018-03-30T10:24:05.682Z,99666.50
2018-03-30T10:26:33.296Z,99662.70
2018-03-30T10:29:00.847Z,99660.22
2018-03-30T10:31:28.461Z,99655.73
2018-03-30T10:33:56.264Z,99653.26
2018-03-30T10:36:23.884Z,99642.88
2018-03-30T10:38:51.460Z,99638.69
2018-03-30T10:41:19.024Z,99645.89
2018-03-30T10:43:46.655Z,99636.27
2018-03-30T10:46:14.465Z,99642.20
2018-03-30T10:48:42.239Z,99627.26
2018-03-30T10:51:09.966Z,99632.64
2018-03-30T10:53:37.828Z,99617.71
2018-03-30T10:56:05.832Z,99611.96
2018-03-30T10:58:33.465Z,99610.72
2018-03-30T11:01:01.034Z,99606.67
2018-03-30T11:03:28.692Z,99611.54
2018-03-30T11:05:56.255Z,99609.61
2018-03-30T11:08:23.812Z,99612.36
2018-03-30T11:10:51.416Z,99615.72
2018-03-30T11:13:19.996Z,99610.34
2018-03-30T11:15:48.067Z,99612.23
2018-03-30T11:18:15.668Z,99614.58
2018-03-30T11:20:43.239Z,99615.47
2018-03-30T11:23:10.916Z,99609.36
2018-03-30T11:25:38.703Z,99601.59
2018-03-30T11:28:07.154Z,99597.55
2018-03-30T11:30:34.719Z,99595.39
2018-03-30T11:33:02.349Z,99593.03
2018-03-30T11:35:29.949Z,99593.61
2018-03-30T11:37:57.524Z,99589.33
2018-03-30T11:40:26.096Z,99583.80
2018-03-30T11:42:53.702Z,99580.53
2018-03-30T11:45:21.739Z,99578.39
2018-03-30T11:47:49.519Z,99574.92
2018-03-30T11:50:17.332Z,99566.42
2018-03-30T11:52:45.000Z,99567.07
2018-03-30T11:55:12.769Z,99561.77
2018-03-30T11:57:40.538Z,99552.56
2018-03-30T12:00:08.925Z,99539.42
2018-03-30T12:02:37.557Z,99539.42
2018-03-30T12:05:05.702Z,99536.53
2018-03-30T12:07:33.483Z,99535.22
2018-03-30T12:10:01.266Z,99533.88
2018-03-30T12:12:28.984Z,99532.57
2018-03-30T12:14:56.599Z,99530.83
2018-03-30T12:17:24.589Z,99532.62
2018-03-30T12:19:52.326Z,99529.98
2018-03-30T12:22:20.384Z,99527.28
2018-03-30T12:24:48.492Z,99527.66
2018-03-30T12:27:16.946Z,99525.09
2018-03-30T12:29:46.112Z,99525.30
2018-03-30T12:32:15.229Z,99516.67
2018-03-30T12:34:43.784Z,99511.14
2018-03-30T12:37:12.472Z,99508.66
2018-03-30T12:39:40.658Z,99506.49
2018-03-30T12:42:08.514Z,99511.73
2018-03-30T12:44:36.408Z,99504.70
2018-03-30T12:47:04.343Z,99503.20
2018-03-30T12:49:32.521Z,99501.95
2018-03-30T12:52:00.649Z,99499.72
2018-03-30T12:54:28.721Z,99493.44
2018-03-30T12:56:56.959Z,99491.42
2018-03-30T12:59:24.944Z,99488.48
2018-03-30T13:01:54.116Z,99494.38
2018-03-30T13:04:22.789Z,99495.66
2018-03-30T13:06:50.721Z,99492.98
2018-03-30T13:09:19.230Z,99492.53
2018-03-30T13:11:47.553Z,99477.75
2018-03-30T13:14:15.987Z,99482.67
2018-03-30T13:16:44.094Z,99480.03
2018-03-30T13:19:11.880Z,99480.92
2018-03-30T13:21:39.692Z,99483.31
2018-03-30T13:24:07.479Z,99474.01
2018-03-30T13:26:35.511Z,99477.26
2018-03-30T13:29:03.708Z,99464.04
2018-03-30T13:31:32.609Z,99463.06
2018-03-30T13:34:00.939Z,99463.44
2018-03-30T13:36:29.162Z,99458.27
2018-03-30T13:38:57.235Z,99454.78
2018-03-30T13:41:25.890Z,99451.35
2018-03-30T13:43:53.986Z,99453.23
2018-03-30T13:46:22.026Z,99448.47
2018-03-30T13:48:50.058Z,99448.84
2018-03-30T13:51:29.314Z,99439.64
2018-03-30T13:53:58.122Z,99443.61
2018-03-30T13:56:28.818Z,99445.83
2018-03-30T13:58:57.462Z,99446.73
2018-03-30T14:01:43.022Z,99445.34
2018-03-30T14:07:16.140Z,99441.94
2018-03-30T14:09:44.677Z,99440.06
2018-03-30T14:12:13.392Z,99436.41
2018-03-30T14:14:41.878Z,99434.66
2018-03-30T14:17:12.291Z,99435.06
2018-03-30T14:19:41.482Z,99437.66
2018-03-30T14:22:16.142Z,99433.63
2018-03-30T14:24:49.032Z,99434.53
2018-03-30T14:27:43.427Z,99430.09
2018-03-30T14:30:16.705Z,99434.22
2018-03-30T14:36:00.930Z,99434.66
2018-03-30T14:38:40.465Z,99432.02
2018-03-30T14:41:09.392Z,99431.18
2018-03-30T14:43:54.779Z,99428.95
2018-03-30T14:46:34.249Z,99427.69
2018-03-30T14:49:03.300Z,99422.77
2018-03-30T14:51:40.406Z,99423.67
2018-03-30T14:54:09.620Z,99427.27
2018-03-30T14:56:40.630Z,99425.05
2018-03-30T14:59:22.163Z,99424.56
2018-03-30T15:01:52.690Z,99424.67
2018-03-30T15:07:25.698Z,99434.01
2018-03-30T15:10:22.089Z,99431.42
2018-03-30T15:12:59.063Z,99435.07
2018-03-30T15:15:36.057Z,99426.38
2018-03-30T15:18:11.609Z,99434.36
2018-03-30T15:20:48.157Z,99436.59
2018-03-30T15:23:22.946Z,99442.00
2018-03-30T15:25:51.268Z,99443.02
2018-03-30T15:28:24.149Z,99443.50
2018-03-30T15:31:01.697Z,99445.80
2018-03-30T15:36:48.792Z,99459.72
2018-03-30T15:39:17.884Z,99454.63
2018-03-30T15:41:46.568Z,99458.34
2018-03-30T15:44:15.715Z,99461.17
2018-03-30T15:46:45.138Z,99462.65
2018-03-30T15:49:13.338Z,99457.09
2018-03-30T15:54:38.010Z,99453.53
2018-03-30T15:57:05.897Z,99451.45
2018-03-30T15:59:34.275Z,99446.29
2018-03-30T16:02:02.663Z,99446.34
2018-03-30T16:04:31.292Z,99450.41
2018-03-30T16:07:00.299Z,99452.23
2018-03-30T16:09:32.048Z,99460.28
2018-03-30T16:12:03.557Z,99466.19
2018-03-30T16:14:32.842Z,99468.59
2018-03-30T16:17:02.368Z,99464.41
2018-03-30T16:19:30.157Z,99465.58
2018-03-30T16:21:57.989Z,99469.66
2018-03-30T16:24:25.864Z,99472.06
2018-03-30T16:26:53.830Z,99476.61
2018-03-30T16:29:21.587Z,99477.21
2018-03-30T16:31:49.258Z,99477.79
2018-03-30T16:34:17.420Z,99470.89
2018-03-30T16:36:46.322Z,99472.75
2018-03-30T16:39:14.731Z,99477.84
2018-03-30T16:41:43.885Z,99477.36
2018-03-30T16:44:11.996Z,99476.67
2018-03-30T16:46:39.856Z,99479.00
2018-03-30T16:49:07.933Z,99479.66
2018-03-30T16:51:35.763Z,99484.41
2018-03-30T16:54:04.189Z,99485.10
2018-03-30T16:56:32.239Z,99476.09
2018-03-30T16:59:00.065Z,99480.22
2018-03-30T17:01:27.840Z,99477.75
2018-03-30T17:03:55.604Z,99482.30
2018-03-30T17:06:23.563Z,99492.08
2018-03-30T17:08:51.943Z,99497.08
2018-03-30T17:11:20.160Z,99498.84
2018-03-30T17:13:48.658Z,99511.66
2018-03-30T17:16:17.034Z,99519.42
2018-03-30T17:18:46.687Z,99520.77
2018-03-30T17:21:14.381Z,99516.85
2018-03-30T17:23:42.775Z,99520.16
2018-03-30T17:26:11.837Z,99516.98
2018-03-30T17:28:40.206Z,99523.06
2018-03-30T17:31:08.381Z,99531.92
2018-03-30T17:33:36.573Z,99529.45
2018-03-30T17:36:04.321Z,99534.34
2018-03-30T17:38:32.885Z,99538.37
2018-03-30T17:41:00.658Z,99545.06
2018-03-30T17:43:28.623Z,99550.38
2018-03-30T17:45:56.817Z,99552.23
2018-03-30T17:48:24.794Z,99556.63
2018-03-30T17:50:52.632Z,99559.68
2018-03-30T17:53:20.109Z,99560.11
2018-03-30T17:55:48.061Z,99561.63
2018-03-30T17:58:17.356Z,99561.27
2018-03-30T18:00:46.048Z,99563.84
2018-03-30T18:03:15.490Z,99563.89
2018-03-30T18:05:44.031Z,99561.89
2018-03-30T18:08:13.037Z,99564.63
2018-03-30T18:10:41.204Z,99572.44
2018-03-30T18:13:11.412Z,99580.07
2018-03-30T18:15:39.533Z,99581.08
2018-03-30T18:18:09.218Z,99581.17
2018-03-30T18:20:37.784Z,99575.63
2018-03-30T18:23:06.770Z,99578.38
2018-03-30T18:25:35.292Z,99582.28
2018-03-30T18:28:04.867Z,99576.53
2018-03-30T18:30:33.505Z,99579.15
2018-03-30T18:33:01.512Z,99580.89
2018-03-30T18:35:31.367Z,99582.20
2018-03-30T18:37:59.400Z,99583.48
2018-03-30T18:40:27.263Z,99591.91
2018-03-30T18:42:56.155Z,99594.05
2018-03-30T18:45:25.382Z,99587.44
2018-03-30T18:47:55.062Z,99596.77
2018-03-30T18:50:24.032Z,99594.45
2018-03-30T18:52:52.239Z,99604.61
2018-03-30T18:55:20.742Z,99611.81
2018-03-30T18:57:49.451Z,99626.27
2018-03-30T19:00:18.188Z,99624.17
2018-03-30T19:02:47.288Z,99624.77
2018-03-30T19:05:15.554Z,99630.27
2018-03-30T19:07:44.179Z,99627.33
2018-03-30T19:10:13.724Z,99626.72
2018-03-30T19:12:42.783Z,99624.60
2018-03-30T19:15:10.912Z,99629.82
2018-03-30T19:17:38.905Z,99633.27
2018-03-30T19:20:07.993Z,99634.39
2018-03-30T19:22:38.302Z,99638.77
2018-03-30T19:25:05.867Z,99628.98
2018-03-30T19:27:34.146Z,99630.13
2018-03-30T19:30:02.715Z,99636.98
2018-03-30T19:32:30.582Z,99638.88
2018-03-30T19:34:59.866Z,99634.65
2018-03-30T19:37:28.113Z,99640.42
2018-03-30T19:39:56.027Z,99641.19
2018-03-30T19:42:24.020Z,99644.61
2018-03-30T19:44:52.235Z,99630.03
2018-03-30T19:47:20.437Z,99640.19
2018-03-30T19:49:49.429Z,99638.83
2018-03-30T19:52:18.426Z,99639.15
2018-03-30T19:54:47.350Z,99645.20
2018-03-30T19:57:16.724Z,99647.41
2018-03-30T19:59:45.093Z,99644.59
2018-03-30T20:02:12.862Z,99630.06
2018-03-30T20:04:43.663Z,99630.77
2018-03-30T20:07:12.126Z,99633.78
2018-03-30T20:09:40.533Z,99637.89
2018-03-30T20:12:08.220Z,99639.55
2018-03-30T20:14:35.835Z,99642.76
2018-03-30T20:17:04.084Z,99646.52
2018-03-30T20:19:32.032Z,99645.38
2018-03-30T20:22:01.947Z,99643.21
2018-03-30T20:24:31.336Z,99649.81
2018-03-30T20:27:00.322Z,99644.05
2018-03-30T20:29:29.946Z,99639.22
2018-03-30T20:31:58.214Z,99637.56
2018-03-30T20:34:27.405Z,99648.36
2018-03-30T20:36:55.318Z,99656.66
2018-03-30T20:39:23.996Z,99660.88
2018-03-30T20:41:52.331Z,99655.66
2018-03-30T20:44:19.972Z,99660.78
2018-03-30T20:46:47.664Z,99657.58
2018-03-30T20:49:15.021Z,99659.55
2018-03-30T20:51:43.007Z,99659.30
2018-03-30T20:54:11.560Z,99661.33
2018-03-30T20:56:39.584Z,99648.17
2018-03-30T20:59:07.700Z,99638.80
2018-03-30T21:01:36.144Z,99651.67
2018-03-30T21:04:04.258Z,99652.70
2018-03-30T21:06:32.138Z,99652.89
2018-03-30T21:09:00.063Z,99658.80
2018-03-30T21:11:27.964Z,99662.48
2018-03-30T21:13:56.158Z,99657.73
2018-03-30T21:16:23.890Z,99656.73
2018-03-30T21:18:52.217Z,99662.02
2018-03-30T21:21:20.029Z,99665.23
2018-03-30T21:23:47.908Z,99655.53
2018-03-30T21:26:15.461Z,99665.45
2018-03-30T21:28:42.742Z,99664.02
2018-03-30T21:31:10.456Z,99666.17
2018-03-30T21:33:38.526Z,99666.80
2018-03-30T21:36:06.595Z,99670.96
2018-03-30T21:38:34.078Z,99670.55
2018-03-30T21:41:01.175Z,99676.89
2018-03-30T21:43:28.655Z,99671.06
2018-03-30T21:45:55.715Z,99678.22
2018-03-30T21:48:22.787Z,99674.66
2018-03-30T21:50:49.816Z,99671.56
2018-03-30T21:53:16.936Z,99672.08
2018-03-30T21:55:43.992Z,99669.17
2018-03-30T21:58:11.000Z,99675.98
2018-03-30T22:00:38.080Z,99679.27
2018-03-30T22:03:05.236Z,99676.86
2018-03-30T22:05:32.306Z,99681.89
2018-03-30T22:07:59.334Z,99682.91
2018-03-30T22:10:26.395Z,99681.23
2018-03-30T22:12:53.524Z,99676.62
2018-03-30T22:15:20.674Z,99681.53
2018-03-30T22:17:48.609Z,99679.97
2018-03-30T22:20:15.637Z,99676.48
2018-03-30T22:22:42.690Z,99679.11
2018-03-30T22:25:09.720Z,99681.82
2018-03-30T22:27:36.796Z,99674.74
2018-03-30T22:30:03.817Z,99669.29
2018-03-30T22:32:31.502Z,99669.89
2018-03-30T22:34:58.564Z,99670.67
2018-03-30T22:37:25.592Z,99671.63
2018-03-30T22:39:53.274Z,99665.72
2018-03-30T22:42:20.289Z,99668.95
2018-03-30T22:44:47.320Z,99672.39
2018-03-30T22:47:14.380Z,99671.91
2018-03-30T22:49:41.400Z,99664.70
2018-03-30T22:52:08.465Z,99663.88
2018-03-30T22:54:35.527Z,99666.28
2018-03-30T22:57:02.557Z,99673.11
2018-03-30T22:59:30.364Z,99682.19
2018-03-30T23:01:57.371Z,99685.72
2018-03-30T23:04:24.423Z,99691.98
2018-03-30T23:06:51.511Z,99688.03
2018-03-30T23:09:18.535Z,99676.56
2018-03-30T23:11:46.332Z,99674.59
2018-03-30T23:14:13.759Z,99677.82
2018-03-30T23:16:40.803Z,99677.92
2018-03-30T23:19:08.394Z,99671.67
2018-03-30T23:21:36.119Z,99674.81
2018-03-30T23:24:03.167Z,99679.90
2018-03-30T23:26:30.223Z,99680.30
2018-03-30T23:28:57.241Z,99679.42
2018-03-30T23:31:24.775Z,99676.24
2018-03-30T23:33:52.392Z,99680.11
2018-03-30T23:36:19.412Z,99679.47
2018-03-30T23:38:46.495Z,99678.13
2018-03-30T23:41:14.104Z,99678.64
2018-03-30T23:43:41.159Z,99675.48
2018-03-30T23:46:08.227Z,99670.33
2018-03-30T23:48:35.739Z,99660.31
2018-03-30T23:51:03.416Z,99672.39
2018-03-30T23:53:30.432Z,99679.19
2018-03-30T23:55:57.495Z,99675.70
2018-03-30T23:58:24.514Z,99671.72
